createdAt,value
2018-03-23T00:00:14.379Z,5.70
2018-03-23T00:02:42.751Z,5.60
2018-03-23T00:05:10.236Z,5.60
2018-03-23T00:07:37.694Z,5.60
2018-03-23T00:10:05.156Z,5.60
2018-03-23T00:12:32.843Z,5.60
2018-03-23T00:15:00.300Z,5.60
2018-03-23T00:17:27.772Z,5.60
2018-03-23T00:19:55.270Z,5.60
2018-03-23T00:22:22.731Z,5.60
2018-03-23T00:24:50.495Z,5.60
2018-03-23T00:27:17.970Z,5.60
2018-03-23T00:29:45.627Z,5.60
2018-03-23T00:32:13.084Z,5.60
2018-03-23T00:34:40.556Z,5.60
2018-03-23T00:37:08.012Z,5.60
2018-03-23T00:39:35.504Z,5.60
2018-03-23T00:42:02.947Z,5.60
2018-03-23T00:44:30.403Z,5.50
2018-03-23T00:46:57.917Z,5.50
2018-03-23T00:49:25.466Z,5.50
2018-03-23T00:51:52.920Z,5.40
2018-03-23T00:54:20.599Z,5.50
2018-03-23T00:56:48.056Z,5.50
2018-03-23T00:59:15.528Z,5.50
2018-03-23T01:01:42.984Z,5.50
2018-03-23T01:04:10.484Z,5.50
2018-03-23T01:06:38.111Z,5.50
2018-03-23T01:09:05.592Z,5.50
2018-03-23T01:11:33.117Z,5.40
2018-03-23T01:14:00.880Z,5.40
2018-03-23T01:16:28.648Z,5.40
2018-03-23T01:18:56.112Z,5.40
2018-03-23T01:21:23.572Z,5.50
2018-03-23T01:23:51.037Z,5.50
2018-03-23T01:26:18.600Z,5.40
2018-03-23T01:28:46.855Z,5.50
2018-03-23T01:31:14.623Z,5.50
2018-03-23T01:33:42.387Z,5.50
2018-03-23T01:36:09.848Z,5.50
2018-03-23T01:38:37.316Z,5.50
2018-03-23T01:41:05.064Z,5.50
2018-03-23T01:43:32.520Z,5.50
2018-03-23T01:46:00.213Z,5.50
2018-03-23T01:48:27.687Z,5.50
2018-03-23T01:50:55.359Z,5.50
2018-03-23T01:53:34.953Z,5.50
2018-03-23T01:56:02.427Z,5.50
2018-03-23T01:58:30.088Z,5.60
2018-03-23T02:00:57.640Z,5.60
2018-03-23T02:03:25.402Z,5.60
2018-03-23T02:05:52.860Z,5.60
2018-03-23T02:08:20.320Z,5.60
2018-03-23T02:10:47.996Z,5.60
2018-03-23T02:13:15.463Z,5.60
2018-03-23T02:15:42.915Z,5.60
2018-03-23T02:18:10.447Z,5.60
2018-03-23T02:20:38.212Z,5.60
2018-03-23T02:23:05.676Z,5.60
2018-03-23T02:25:33.144Z,5.60
2018-03-23T02:28:00.675Z,5.60
2018-03-23T02:30:28.272Z,5.60
2018-03-23T02:32:55.820Z,5.60
2018-03-23T02:35:23.427Z,5.60
2018-03-23T02:37:51.039Z,5.50
2018-03-23T02:40:18.497Z,5.60
2018-03-23T02:42:46.024Z,5.60
2018-03-23T02:45:13.487Z,5.60
2018-03-23T02:47:41.174Z,5.60
2018-03-23T02:50:08.629Z,5.70
2018-03-23T02:52:36.089Z,5.70
2018-03-23T02:55:03.586Z,5.70
2018-03-23T02:57:31.317Z,5.60
2018-03-23T02:59:58.772Z,5.60
2018-03-23T03:02:26.231Z,5.60
2018-03-23T03:04:53.991Z,5.60
2018-03-23T03:07:21.763Z,5.60
2018-03-23T03:09:49.524Z,5.60
2018-03-23T03:12:17.156Z,5.60
2018-03-23T03:14:44.756Z,5.60
2018-03-23T03:17:12.328Z,5.60
2018-03-23T03:19:40.546Z,5.60
2018-03-23T03:22:08.046Z,5.60
2018-03-23T03:24:35.803Z,5.70
2018-03-23T03:27:03.276Z,5.70
2018-03-23T03:29:31.027Z,5.70
2018-03-23T03:31:58.711Z,5.70
2018-03-23T03:34:26.251Z,5.70
2018-03-23T03:36:53.706Z,5.70
2018-03-23T03:39:21.472Z,5.70
2018-03-23T03:41:49.239Z,5.70
2018-03-23T03:44:17.008Z,5.70
2018-03-23T03:46:44.471Z,5.70
2018-03-23T03:49:11.931Z,5.80
2018-03-23T03:51:39.387Z,5.70
2018-03-23T03:54:06.864Z,5.80
2018-03-23T03:56:34.323Z,5.70
2018-03-23T03:59:02.064Z,5.80
2018-03-23T04:01:29.743Z,5.80
2018-03-23T04:03:57.288Z,5.80
2018-03-23T04:06:25.047Z,5.80
2018-03-23T04:08:52.724Z,5.80
2018-03-23T04:11:20.188Z,5.80
2018-03-23T04:13:47.723Z,5.80
2018-03-23T04:16:15.177Z,5.80
2018-03-23T04:18:42.647Z,5.80
2018-03-23T04:21:10.104Z,5.70
2018-03-23T04:23:37.575Z,5.70
2018-03-23T04:26:05.325Z,5.70
2018-03-23T04:28:32.785Z,5.80
2018-03-23T04:31:00.511Z,5.70
2018-03-23T04:33:28.004Z,5.80
2018-03-23T04:35:55.777Z,5.80
2018-03-23T04:38:23.456Z,5.70
2018-03-23T04:40:50.995Z,5.80
2018-03-23T04:43:18.681Z,5.70
2018-03-23T04:45:46.128Z,5.70
2018-03-23T04:48:13.596Z,5.80
2018-03-23T04:50:41.141Z,5.80
2018-03-23T04:53:08.604Z,5.70
2018-03-23T04:55:36.064Z,5.70
2018-03-23T04:58:03.820Z,5.70
2018-03-23T05:00:31.594Z,5.80
2018-03-23T05:02:59.361Z,5.80
2018-03-23T05:05:26.819Z,5.70
2018-03-23T05:07:54.276Z,5.70
2018-03-23T05:10:21.752Z,5.80
2018-03-23T05:12:49.488Z,5.70
2018-03-23T05:15:17.288Z,5.70
2018-03-23T05:17:45.011Z,5.70
2018-03-23T05:20:12.475Z,5.70
2018-03-23T05:22:40.258Z,5.80
2018-03-23T05:25:08.003Z,5.80
2018-03-23T05:27:35.473Z,5.70
2018-03-23T05:30:03.241Z,5.80
2018-03-23T05:32:30.703Z,5.70
2018-03-23T05:34:58.161Z,5.70
2018-03-23T05:37:25.774Z,5.70
2018-03-23T05:39:53.284Z,5.70
2018-03-23T05:42:20.743Z,5.70
2018-03-23T05:44:48.212Z,5.70
2018-03-23T05:47:15.748Z,5.70
2018-03-23T05:49:43.499Z,5.70
2018-03-23T05:52:10.960Z,5.70
2018-03-23T05:54:38.639Z,5.70
2018-03-23T05:57:06.104Z,5.70
2018-03-23T05:59:33.580Z,5.70
2018-03-23T06:02:01.104Z,5.70
2018-03-23T06:04:28.566Z,5.70
2018-03-23T06:06:56.047Z,5.80
2018-03-23T06:09:24.161Z,5.70
2018-03-23T06:11:51.855Z,5.60
2018-03-23T06:14:19.332Z,5.60
2018-03-23T06:16:46.802Z,5.50
2018-03-23T06:19:14.447Z,5.50
2018-03-23T06:21:41.995Z,5.40
2018-03-23T06:24:09.615Z,5.40
2018-03-23T06:26:37.160Z,5.40
2018-03-23T06:29:04.635Z,5.40
2018-03-23T06:31:32.091Z,5.30
2018-03-23T06:33:59.599Z,5.40
2018-03-23T06:36:27.268Z,5.40
2018-03-23T06:38:54.809Z,5.40
2018-03-23T06:41:22.297Z,5.40
2018-03-23T06:43:49.815Z,5.40
2018-03-23T06:46:17.491Z,5.50
2018-03-23T06:48:44.951Z,5.50
2018-03-23T06:51:12.416Z,5.50
2018-03-23T06:53:39.892Z,5.50
2018-03-23T06:56:07.556Z,5.60
2018-03-23T06:58:35.019Z,5.50
2018-03-23T07:01:02.488Z,5.60
2018-03-23T07:03:29.960Z,5.60
2018-03-23T07:05:57.420Z,5.70
2018-03-23T07:08:24.879Z,5.70
2018-03-23T07:10:52.340Z,5.60
2018-03-23T07:13:19.801Z,5.60
2018-03-23T07:15:47.302Z,5.60
2018-03-23T07:18:15.064Z,5.70
2018-03-23T07:20:42.517Z,5.70
2018-03-23T07:23:09.978Z,5.70
2018-03-23T07:25:37.448Z,5.70
2018-03-23T07:28:05.199Z,5.80
2018-03-23T07:30:32.871Z,5.90
2018-03-23T07:33:00.420Z,5.90
2018-03-23T07:35:28.206Z,5.90
2018-03-23T07:37:55.711Z,5.90
2018-03-23T07:40:23.171Z,5.90
2018-03-23T07:42:50.647Z,5.80
2018-03-23T07:45:18.328Z,5.90
2018-03-23T07:47:45.795Z,5.90
2018-03-23T07:50:13.388Z,6.00
2018-03-23T07:52:41.014Z,6.00
2018-03-23T07:55:08.477Z,6.10
2018-03-23T07:57:36.232Z,6.10
2018-03-23T08:00:03.805Z,6.00
2018-03-23T08:02:32.072Z,6.20
2018-03-23T08:04:59.835Z,6.20
2018-03-23T08:07:27.291Z,6.30
2018-03-23T08:09:54.771Z,6.40
2018-03-23T08:12:22.518Z,6.40
2018-03-23T08:14:50.323Z,6.40
2018-03-23T08:17:18.044Z,6.30
2018-03-23T08:19:45.503Z,6.20
2018-03-23T08:22:12.971Z,6.20
2018-03-23T08:24:40.430Z,6.20
2018-03-23T08:27:08.179Z,6.10
2018-03-23T08:29:35.855Z,6.10
2018-03-23T08:32:03.408Z,6.10
2018-03-23T08:34:30.879Z,6.10
2018-03-23T08:36:58.332Z,6.10
2018-03-23T08:39:25.795Z,6.20
2018-03-23T08:41:53.394Z,6.30
2018-03-23T08:44:20.852Z,6.50
2018-03-23T08:46:48.324Z,6.70
2018-03-23T08:49:15.804Z,6.80
2018-03-23T08:51:43.295Z,7.00
2018-03-23T08:54:10.830Z,7.20
2018-03-23T08:56:38.304Z,7.30
2018-03-23T08:59:06.051Z,7.30
2018-03-23T09:01:33.521Z,7.40
2018-03-23T09:04:01.013Z,7.40
2018-03-23T09:06:28.759Z,7.60
2018-03-23T09:08:56.219Z,7.70
2018-03-23T09:11:23.691Z,7.80
2018-03-23T09:13:51.151Z,7.90
2018-03-23T09:16:18.787Z,7.80
2018-03-23T09:18:46.332Z,8.00
2018-03-23T09:21:13.907Z,8.10
2018-03-23T09:23:42.176Z,7.80
2018-03-23T09:26:09.935Z,7.90
2018-03-23T09:28:37.414Z,7.80
2018-03-23T09:31:04.891Z,7.80
2018-03-23T09:33:32.526Z,7.80
2018-03-23T09:35:59.991Z,7.80
2018-03-23T09:38:27.487Z,7.80
2018-03-23T09:40:54.952Z,7.80
2018-03-23T09:43:22.468Z,7.80
2018-03-23T09:45:50.220Z,7.80
2018-03-23T09:48:17.989Z,7.90
2018-03-23T09:50:45.447Z,7.90
2018-03-23T09:53:13.206Z,7.80
2018-03-23T09:55:40.681Z,7.60
2018-03-23T09:58:08.432Z,7.70
2018-03-23T10:00:36.010Z,7.60
2018-03-23T10:03:04.269Z,7.50
2018-03-23T10:05:31.791Z,7.40
2018-03-23T10:07:59.219Z,7.40
2018-03-23T10:10:26.697Z,7.40
2018-03-23T10:12:54.401Z,7.50
2018-03-23T10:15:22.020Z,7.40
2018-03-23T10:17:49.535Z,7.40
2018-03-23T10:20:17.008Z,7.40
2018-03-23T10:22:44.700Z,7.40
2018-03-23T10:25:12.216Z,7.40
2018-03-23T10:27:39.794Z,7.50
2018-03-23T10:30:07.531Z,7.50
2018-03-23T10:32:35.003Z,7.70
2018-03-23T10:35:02.669Z,7.60
2018-03-23T10:37:30.143Z,7.70
2018-03-23T10:39:57.672Z,7.60
2018-03-23T10:42:25.147Z,7.60
2018-03-23T10:44:52.892Z,7.60
2018-03-23T10:47:20.656Z,7.60
2018-03-23T10:49:48.423Z,7.60
2018-03-23T10:52:15.886Z,7.60
2018-03-23T10:54:43.348Z,7.60
2018-03-23T10:57:11.032Z,7.50
2018-03-23T10:59:38.481Z,7.50
2018-03-23T11:02:11.524Z,7.50
2018-03-23T11:04:39.008Z,7.50
2018-03-23T11:07:08.000Z,7.70
2018-03-23T11:09:35.728Z,7.70
2018-03-23T11:12:03.219Z,7.80
2018-03-23T11:14:30.689Z,7.90
2018-03-23T11:16:58.148Z,7.90
2018-03-23T11:19:25.864Z,8.00
2018-03-23T11:21:53.340Z,7.90
2018-03-23T11:24:20.839Z,8.00
2018-03-23T11:26:48.319Z,7.90
2018-03-23T11:29:15.820Z,7.80
2018-03-23T11:31:43.276Z,7.80
2018-03-23T11:34:10.863Z,7.80
2018-03-23T11:36:38.420Z,7.70
2018-03-23T11:39:06.095Z,7.70
2018-03-23T11:41:33.564Z,7.80
2018-03-23T11:44:01.035Z,7.80
2018-03-23T11:46:28.556Z,7.80
2018-03-23T11:48:56.230Z,7.70
2018-03-23T11:51:23.705Z,7.80
2018-03-23T11:53:51.188Z,7.80
2018-03-23T11:56:18.656Z,7.70
2018-03-23T11:58:46.119Z,7.70
2018-03-23T12:01:13.610Z,7.70
2018-03-23T12:03:41.083Z,7.70
2018-03-23T12:06:08.543Z,7.60
2018-03-23T12:08:36.224Z,7.60
2018-03-23T12:11:03.756Z,7.50
2018-03-23T12:13:31.215Z,7.50
2018-03-23T12:15:58.921Z,7.50
2018-03-23T12:18:26.436Z,7.50
2018-03-23T12:20:53.907Z,7.60
2018-03-23T12:23:21.660Z,7.50
2018-03-23T12:25:49.266Z,7.50
2018-03-23T12:28:16.902Z,7.40
2018-03-23T12:30:44.601Z,7.30
2018-03-23T12:33:12.075Z,7.30
2018-03-23T12:35:39.535Z,7.40
2018-03-23T12:38:07.035Z,7.50
2018-03-23T12:40:34.788Z,7.50
2018-03-23T12:43:02.463Z,7.50
2018-03-23T12:45:29.977Z,7.50
2018-03-23T12:47:57.384Z,7.50
2018-03-23T12:50:24.881Z,7.50
2018-03-23T12:52:52.336Z,7.60
2018-03-23T12:55:19.812Z,7.60
2018-03-23T12:57:47.317Z,7.60
2018-03-23T13:00:14.733Z,7.50
2018-03-23T13:02:42.523Z,7.50
2018-03-23T13:05:09.984Z,7.50
2018-03-23T13:07:37.447Z,7.60
2018-03-23T13:10:04.928Z,7.60
2018-03-23T13:12:32.651Z,7.60
2018-03-23T13:15:00.115Z,7.70
2018-03-23T13:17:27.880Z,7.50
2018-03-23T13:19:56.104Z,7.50
2018-03-23T13:22:23.630Z,7.50
2018-03-23T13:24:51.135Z,7.50
2018-03-23T13:27:18.619Z,7.40
2018-03-23T13:29:46.085Z,7.40
2018-03-23T13:32:15.079Z,7.30
2018-03-23T13:34:42.545Z,7.30
2018-03-23T13:37:10.004Z,7.30
2018-03-23T13:39:37.485Z,7.30
2018-03-23T13:42:05.069Z,7.10
2018-03-23T13:44:32.532Z,7.10
2018-03-23T13:47:00.001Z,7.20
2018-03-23T13:49:27.600Z,7.20
2018-03-23T13:51:55.283Z,7.30
2018-03-23T13:54:22.789Z,7.30
2018-03-23T13:56:50.265Z,7.30
2018-03-23T13:59:23.448Z,7.30
2018-03-23T14:01:51.060Z,7.30
2018-03-23T14:04:18.723Z,7.30
2018-03-23T14:06:46.252Z,7.30
2018-03-23T14:09:13.741Z,7.30
2018-03-23T14:11:41.476Z,7.20
2018-03-23T14:14:08.935Z,7.30
2018-03-23T14:16:36.616Z,7.30
2018-03-23T14:19:04.155Z,7.20
2018-03-23T14:21:31.925Z,7.20
2018-03-23T14:23:59.375Z,7.10
2018-03-23T14:26:26.862Z,7.10
2018-03-23T14:28:54.366Z,7.10
2018-03-23T14:31:21.824Z,7.10
2018-03-23T14:33:49.452Z,7.00
2018-03-23T14:36:16.944Z,7.00
2018-03-23T14:38:44.407Z,7.00
2018-03-23T14:41:11.881Z,7.00
2018-03-23T14:43:39.380Z,7.00
2018-03-23T14:46:06.854Z,7.00
2018-03-23T14:48:34.552Z,7.00
2018-03-23T14:51:02.048Z,7.00
2018-03-23T14:53:29.748Z,7.00
2018-03-23T14:55:57.272Z,7.00
2018-03-23T14:58:24.727Z,7.00
2018-03-23T15:00:52.481Z,7.00
2018-03-23T15:03:19.955Z,7.00
2018-03-23T15:05:47.607Z,7.00
2018-03-23T15:08:15.076Z,7.00
2018-03-23T15:10:42.620Z,7.00
2018-03-23T15:13:10.100Z,7.00
2018-03-23T15:15:37.564Z,7.00
2018-03-23T15:18:05.040Z,7.00
2018-03-23T15:20:32.767Z,7.00
2018-03-23T15:23:00.417Z,7.10
2018-03-23T15:25:28.031Z,7.10
2018-03-23T15:27:55.742Z,7.10
2018-03-23T15:30:23.283Z,7.10
2018-03-23T15:32:50.971Z,7.20
2018-03-23T15:35:18.428Z,7.20
2018-03-23T15:37:45.901Z,7.10
2018-03-23T15:40:13.557Z,7.20
2018-03-23T15:42:41.059Z,7.10
2018-03-23T15:45:08.520Z,7.20
2018-03-23T15:47:36.004Z,7.10
2018-03-23T15:50:03.464Z,7.10
2018-03-23T15:52:30.980Z,7.10
2018-03-23T15:54:58.414Z,7.00
2018-03-23T15:57:26.301Z,7.00
2018-03-23T15:59:53.878Z,7.00
2018-03-23T16:02:21.359Z,6.90
2018-03-23T16:04:48.906Z,7.00
2018-03-23T16:07:16.304Z,6.90
2018-03-23T16:09:43.933Z,6.90
2018-03-23T16:12:11.420Z,6.90
2018-03-23T16:14:38.900Z,6.90
2018-03-23T16:17:06.437Z,6.90
2018-03-23T16:19:33.924Z,6.90
2018-03-23T16:22:01.390Z,6.90
2018-03-23T16:24:29.122Z,6.80
2018-03-23T16:26:56.587Z,6.80
2018-03-23T16:29:24.051Z,6.90
2018-03-23T16:31:51.799Z,6.90
2018-03-23T16:34:19.263Z,6.90
2018-03-23T16:36:47.049Z,6.90
2018-03-23T16:39:14.517Z,6.90
2018-03-23T16:41:42.184Z,6.90
2018-03-23T16:44:09.661Z,6.90
2018-03-23T16:46:37.144Z,6.90
2018-03-23T16:49:04.624Z,6.80
2018-03-23T16:51:32.103Z,6.80
2018-03-23T16:53:59.600Z,6.80
2018-03-23T16:56:27.069Z,6.80
2018-03-23T16:58:54.550Z,6.80
2018-03-23T17:01:22.023Z,6.80
2018-03-23T17:03:49.493Z,6.80
2018-03-23T17:06:17.718Z,6.70
2018-03-23T17:08:45.201Z,6.70
2018-03-23T17:11:12.991Z,6.70
2018-03-23T17:13:40.464Z,6.60
2018-03-23T17:16:08.192Z,6.70
2018-03-23T17:18:35.667Z,6.60
2018-03-23T17:21:03.411Z,6.60
2018-03-23T17:23:31.053Z,6.60
2018-03-23T17:25:58.559Z,6.60
2018-03-23T17:28:26.038Z,6.60
2018-03-23T17:30:53.552Z,6.60
2018-03-23T17:33:21.021Z,6.60
2018-03-23T17:35:48.489Z,6.60
2018-03-23T17:38:16.764Z,6.90
2018-03-23T17:40:44.222Z,6.50
2018-03-23T17:43:11.772Z,6.50
2018-03-23T17:45:39.543Z,6.50
2018-03-23T17:48:07.011Z,6.50
2018-03-23T17:50:34.763Z,6.50
2018-03-23T17:53:02.432Z,6.50
2018-03-23T17:55:30.438Z,6.50
2018-03-23T17:57:58.050Z,6.50
2018-03-23T18:00:25.732Z,6.50
2018-03-23T18:02:53.206Z,6.50
2018-03-23T18:05:20.656Z,6.50
2018-03-23T18:07:49.021Z,6.50
2018-03-23T18:10:16.570Z,6.40
2018-03-23T18:12:44.335Z,6.40
2018-03-23T18:15:11.800Z,6.40
2018-03-23T18:17:39.263Z,6.40
2018-03-23T18:20:06.931Z,6.40
2018-03-23T18:22:34.409Z,6.40
2018-03-23T18:25:01.864Z,6.40
2018-03-23T18:27:29.345Z,6.40
2018-03-23T18:29:56.795Z,6.50
2018-03-23T18:32:24.277Z,6.40
2018-03-23T18:34:51.759Z,6.40
2018-03-23T18:37:19.233Z,6.40
2018-03-23T18:39:46.691Z,6.40
2018-03-23T18:42:14.165Z,6.40
2018-03-23T18:44:41.994Z,6.40
2018-03-23T18:47:09.659Z,6.40
2018-03-23T18:49:37.140Z,6.40
2018-03-23T18:52:04.636Z,6.40
2018-03-23T18:54:32.093Z,6.40
2018-03-23T18:56:59.806Z,6.40
2018-03-23T18:59:27.264Z,6.40
2018-03-23T19:01:54.747Z,6.40
2018-03-23T19:04:22.487Z,6.40
2018-03-23T19:06:50.252Z,6.40
2018-03-23T19:09:18.021Z,6.40
2018-03-23T19:11:45.492Z,6.40
2018-03-23T19:14:12.948Z,6.40
2018-03-23T19:16:40.608Z,6.30
2018-03-23T19:19:08.077Z,6.40
2018-03-23T19:21:35.560Z,6.40
2018-03-23T19:24:03.073Z,6.40
2018-03-23T19:26:30.607Z,6.40
2018-03-23T19:28:58.064Z,6.30
2018-03-23T19:31:25.524Z,6.30
2018-03-23T19:33:53.205Z,6.40
2018-03-23T19:36:20.670Z,6.30
2018-03-23T19:38:48.128Z,6.30
2018-03-23T19:41:15.587Z,6.40
2018-03-23T19:43:43.263Z,6.30
2018-03-23T19:46:10.724Z,6.30
2018-03-23T19:48:38.184Z,6.20
2018-03-23T19:51:05.644Z,6.30
2018-03-23T19:53:33.181Z,6.30
2018-03-23T19:56:00.856Z,6.30
2018-03-23T19:58:28.309Z,6.30
2018-03-23T20:00:55.772Z,6.20
2018-03-23T20:03:23.233Z,6.30
2018-03-23T20:05:50.700Z,6.30
2018-03-23T20:08:18.924Z,6.30
2018-03-23T20:10:46.384Z,6.30
2018-03-23T20:13:14.068Z,6.20
2018-03-23T20:15:41.839Z,6.20
2018-03-23T20:18:14.916Z,6.30
2018-03-23T20:20:48.048Z,6.20
2018-03-23T20:23:15.508Z,6.30
2018-03-23T20:25:42.965Z,6.20
2018-03-23T20:28:15.988Z,6.20
2018-03-23T20:30:43.483Z,6.20
2018-03-23T20:33:10.950Z,6.20
2018-03-23T20:35:38.408Z,6.20
2018-03-23T20:38:05.881Z,6.10
2018-03-23T20:40:33.620Z,6.10
2018-03-23T20:43:01.380Z,6.10
2018-03-23T20:45:28.839Z,6.20
2018-03-23T20:47:56.296Z,6.10
2018-03-23T20:50:24.061Z,6.10
2018-03-23T20:52:51.519Z,6.10
2018-03-23T20:55:19.284Z,6.10
2018-03-23T20:57:46.744Z,6.10
2018-03-23T21:00:14.208Z,6.10
2018-03-23T21:02:41.968Z,6.10
2018-03-23T21:05:09.444Z,6.10
2018-03-23T21:07:36.902Z,6.10
2018-03-23T21:10:04.370Z,6.10
2018-03-23T21:12:32.048Z,6.10
2018-03-23T21:14:59.561Z,6.00
2018-03-23T21:17:27.024Z,6.00
2018-03-23T21:19:54.475Z,6.00
2018-03-23T21:22:21.939Z,6.10
2018-03-23T21:24:49.391Z,6.00
2018-03-23T21:27:16.860Z,6.00
2018-03-23T21:29:44.548Z,6.00
2018-03-23T21:32:12.082Z,6.00
2018-03-23T21:34:39.535Z,6.00
2018-03-23T21:37:07.312Z,6.00
2018-03-23T21:39:34.793Z,6.00
2018-03-23T21:42:03.017Z,6.00
2018-03-23T21:44:30.504Z,5.90
2018-03-23T21:46:58.019Z,6.00
2018-03-23T21:49:25.662Z,6.00
2018-03-23T21:51:53.115Z,6.00
2018-03-23T21:54:20.655Z,6.00
2018-03-23T21:56:48.128Z,6.00
2018-03-23T21:59:15.579Z,6.00
2018-03-23T22:01:43.555Z,6.00
2018-03-23T22:04:11.011Z,6.00
2018-03-23T22:06:38.645Z,5.90
2018-03-23T22:09:06.096Z,6.00
2018-03-23T22:11:33.552Z,6.00
2018-03-23T22:14:01.032Z,6.00
2018-03-23T22:16:28.759Z,6.00
2018-03-23T22:18:56.238Z,6.00
2018-03-23T22:21:23.700Z,6.00
2018-03-23T22:23:51.151Z,5.90
2018-03-23T22:26:18.611Z,5.90
2018-03-23T22:28:46.088Z,6.00
2018-03-23T22:31:13.745Z,6.00
2018-03-23T22:33:41.215Z,6.00
2018-03-23T22:36:08.743Z,6.00
2018-03-23T22:38:36.251Z,6.00
2018-03-23T22:41:03.967Z,6.00
2018-03-23T22:43:31.427Z,6.00
2018-03-23T22:45:58.883Z,6.00
2018-03-23T22:48:26.345Z,6.00
2018-03-23T22:50:53.811Z,6.00
2018-03-23T22:53:21.565Z,6.00
2018-03-23T22:55:49.032Z,6.00
2018-03-23T22:58:16.513Z,6.00
2018-03-23T23:00:43.964Z,6.00
2018-03-23T23:03:11.420Z,6.00
2018-03-23T23:05:39.083Z,6.00
2018-03-23T23:08:06.552Z,5.90
2018-03-23T23:10:34.012Z,5.90
2018-03-23T23:13:01.495Z,6.00
2018-03-23T23:15:28.951Z,5.90
2018-03-23T23:17:56.452Z,5.90
2018-03-23T23:20:24.135Z,5.90
2018-03-23T23:22:51.680Z,5.90
2018-03-23T23:25:19.444Z,6.00
2018-03-23T23:27:47.212Z,5.90
2018-03-23T23:30:14.887Z,5.80
2018-03-23T23:32:42.433Z,5.80
2018-03-23T23:35:10.200Z,5.80
2018-03-23T23:37:37.871Z,5.80
2018-03-23T23:40:05.340Z,5.90
2018-03-23T23:42:32.800Z,5.90
2018-03-23T23:45:00.281Z,5.80
2018-03-23T23:47:27.736Z,5.80
2018-03-23T23:49:55.204Z,5.80
2018-03-23T23:52:22.668Z,5.80
2018-03-23T23:54:50.163Z,5.80
2018-03-23T23:57:17.935Z,5.80
2018-03-23T23:59:45.392Z,5.80
